createdAt,value
2018-07-06T00:00:04.915Z,18.40
2018-07-06T00:02:47.392Z,14.40
2018-07-06T00:05:28.867Z,18.20
2018-07-06T00:08:10.454Z,14.00
2018-07-06T00:10:52.072Z,19.00
2018-07-06T00:13:33.612Z,18.40
2018-07-06T00:16:14.990Z,17.40
2018-07-06T00:18:56.687Z,18.80
2018-07-06T00:21:38.182Z,17.00
2018-07-06T00:24:19.586Z,16.80
2018-07-06T00:27:01.113Z,20.00
2018-07-06T00:29:43.386Z,18.80
2018-07-06T00:32:25.340Z,18.00
2018-07-06T00:35:06.764Z,17.00
2018-07-06T00:37:48.258Z,17.20
2018-07-06T00:40:29.623Z,22.40
2018-07-06T00:43:11.344Z,21.60
2018-07-06T00:45:53.204Z,20.20
2018-07-06T00:48:34.888Z,18.80
2018-07-06T00:51:16.614Z,21.60
2018-07-06T00:53:58.070Z,26.60
2018-07-06T00:56:39.914Z,20.60
2018-07-06T00:59:21.649Z,24.00
2018-07-06T01:02:03.031Z,23.80
2018-07-06T01:04:44.482Z,26.20
2018-07-06T01:07:26.310Z,24.20
2018-07-06T01:10:07.898Z,22.20
2018-07-06T01:12:53.737Z,22.60
2018-07-06T01:15:38.629Z,27.80
2018-07-06T01:18:20.493Z,26.80
2018-07-06T01:21:02.621Z,27.20
2018-07-06T01:23:44.492Z,24.60
2018-07-06T01:26:25.712Z,24.20
2018-07-06T01:29:07.627Z,30.00
2018-07-06T01:31:49.520Z,28.20
2018-07-06T01:34:31.473Z,30.60
2018-07-06T01:37:12.849Z,28.20
2018-07-06T01:39:54.961Z,24.40
2018-07-06T01:42:36.690Z,26.40
2018-07-06T01:45:18.569Z,28.40
2018-07-06T01:48:00.086Z,27.40
2018-07-06T01:50:41.334Z,32.60
2018-07-06T01:53:22.984Z,27.40
2018-07-06T01:56:04.732Z,27.00
2018-07-06T01:58:46.070Z,26.00
2018-07-06T02:01:27.637Z,27.80
2018-07-06T02:04:08.908Z,31.60
2018-07-06T02:06:50.529Z,34.20
2018-07-06T02:09:32.754Z,35.40
2018-07-06T02:12:14.523Z,31.40
2018-07-06T02:14:55.932Z,30.40
2018-07-06T02:17:37.446Z,30.80
2018-07-06T02:20:18.913Z,30.60
2018-07-06T02:23:00.303Z,31.80
2018-07-06T02:25:41.441Z,33.80
2018-07-06T02:28:22.834Z,34.20
2018-07-06T02:31:04.055Z,34.20
2018-07-06T02:33:45.998Z,31.00
2018-07-06T02:36:28.180Z,35.60
2018-07-06T02:39:10.152Z,33.20
2018-07-06T02:41:52.106Z,33.40
2018-07-06T02:44:33.553Z,33.40
2018-07-06T02:47:15.123Z,32.40
2018-07-06T02:49:56.903Z,31.80
2018-07-06T02:52:38.790Z,32.40
2018-07-06T02:55:20.753Z,33.20
2018-07-06T02:58:02.345Z,35.00
2018-07-06T03:00:44.181Z,34.80
2018-07-06T03:03:25.988Z,33.40
2018-07-06T03:06:07.595Z,32.20
2018-07-06T03:08:49.118Z,33.20
2018-07-06T03:11:31.549Z,29.60
2018-07-06T03:14:13.107Z,30.20
2018-07-06T03:16:55.052Z,32.00
2018-07-06T03:19:37.226Z,29.20
2018-07-06T03:22:19.121Z,32.80
2018-07-06T03:25:00.652Z,25.00
2018-07-06T03:27:42.783Z,30.40
2018-07-06T03:30:24.481Z,29.40
2018-07-06T03:33:06.561Z,27.00
2018-07-06T03:35:49.510Z,29.60
2018-07-06T03:38:31.004Z,30.00
2018-07-06T03:41:12.651Z,29.60
2018-07-06T03:43:54.413Z,31.40
2018-07-06T03:46:35.820Z,25.60
2018-07-06T03:49:17.358Z,27.60
2018-07-06T03:51:59.033Z,25.40
2018-07-06T03:54:40.548Z,28.80
2018-07-06T03:57:21.986Z,26.80
2018-07-06T04:00:03.596Z,25.80
2018-07-06T04:02:44.837Z,27.00
2018-07-06T04:05:26.725Z,27.20
2018-07-06T04:08:07.685Z,25.60
2018-07-06T04:10:49.659Z,27.40
2018-07-06T04:13:31.360Z,28.00
2018-07-06T04:16:13.117Z,28.40
2018-07-06T04:18:58.483Z,26.60
2018-07-06T04:21:40.189Z,28.20
2018-07-06T04:24:21.509Z,28.60
2018-07-06T04:27:03.056Z,24.80
2018-07-06T04:29:44.562Z,29.80
2018-07-06T04:32:25.841Z,28.60
2018-07-06T04:35:07.667Z,18.80
2018-07-06T04:37:50.129Z,27.20
2018-07-06T04:40:31.550Z,29.80
2018-07-06T04:43:13.160Z,29.20
2018-07-06T04:45:54.447Z,31.00
2018-07-06T04:48:36.290Z,28.80
2018-07-06T04:51:17.921Z,26.80
2018-07-06T04:53:59.807Z,31.00
2018-07-06T04:56:41.853Z,32.80
2018-07-06T04:59:24.370Z,33.40
2018-07-06T05:02:06.117Z,32.00
2018-07-06T05:04:48.061Z,30.00
2018-07-06T05:07:29.472Z,31.40
2018-07-06T05:10:11.298Z,31.00
2018-07-06T05:12:53.919Z,29.20
2018-07-06T05:15:37.228Z,30.60
2018-07-06T05:18:19.109Z,33.20
2018-07-06T05:21:01.000Z,29.20
2018-07-06T05:23:42.699Z,32.80
2018-07-06T05:26:24.867Z,31.40
2018-07-06T05:29:06.462Z,30.60
2018-07-06T05:31:48.095Z,29.40
2018-07-06T05:34:30.121Z,28.40
2018-07-06T05:37:12.349Z,30.40
2018-07-06T05:39:53.960Z,27.20
2018-07-06T05:42:35.914Z,25.60
2018-07-06T05:45:17.477Z,31.00
2018-07-06T05:47:59.244Z,26.80
2018-07-06T05:50:41.302Z,30.60
2018-07-06T05:53:22.965Z,31.60
2018-07-06T05:56:04.953Z,31.40
2018-07-06T05:58:46.787Z,28.00
2018-07-06T06:01:27.967Z,30.00
2018-07-06T06:04:09.930Z,29.80
2018-07-06T06:06:51.996Z,29.00
2018-07-06T06:09:24.681Z,29.40
2018-07-06T06:11:57.699Z,28.40
2018-07-06T06:14:30.862Z,31.60
2018-07-06T06:17:03.987Z,29.60
2018-07-06T06:19:40.568Z,30.00
2018-07-06T06:22:14.068Z,29.40
2018-07-06T06:24:47.429Z,25.60
2018-07-06T06:27:20.615Z,30.40
2018-07-06T06:29:54.224Z,30.60
2018-07-06T06:32:28.013Z,31.60
2018-07-06T06:35:01.021Z,30.00
2018-07-06T06:37:34.196Z,29.80
2018-07-06T06:40:06.659Z,29.60
2018-07-06T06:42:39.397Z,26.40
2018-07-06T06:45:11.742Z,32.20
2018-07-06T06:47:46.099Z,28.60
2018-07-06T06:50:19.580Z,28.00
2018-07-06T06:52:52.199Z,29.00
2018-07-06T06:55:25.491Z,29.20
2018-07-06T06:57:59.035Z,27.60
2018-07-06T07:00:31.732Z,29.60
2018-07-06T07:03:04.475Z,30.20
2018-07-06T07:05:37.695Z,27.00
2018-07-06T07:08:10.082Z,30.00
2018-07-06T07:10:42.576Z,30.20
2018-07-06T07:13:15.373Z,28.20
2018-07-06T07:15:49.115Z,27.40
2018-07-06T07:18:22.170Z,24.60
2018-07-06T07:20:55.268Z,29.00
2018-07-06T07:23:28.473Z,28.60
2018-07-06T07:26:00.996Z,26.00
2018-07-06T07:28:33.596Z,28.00
2018-07-06T07:31:06.675Z,30.20
2018-07-06T07:33:39.985Z,29.60
2018-07-06T07:36:12.681Z,28.40
2018-07-06T07:38:48.102Z,24.20
2018-07-06T07:41:20.992Z,27.40
2018-07-06T07:43:54.084Z,26.20
2018-07-06T07:46:27.587Z,23.40
2018-07-06T07:49:00.785Z,24.60
2018-07-06T07:52:09.005Z,23.60
2018-07-06T07:54:52.404Z,25.40
2018-07-06T07:57:25.246Z,24.20
2018-07-06T07:59:58.279Z,27.20
2018-07-06T08:02:31.370Z,27.60
2018-07-06T08:05:03.971Z,25.40
2018-07-06T08:07:37.014Z,24.40
2018-07-06T08:10:10.218Z,27.60
2018-07-06T08:12:43.702Z,29.00
2018-07-06T08:15:15.891Z,23.40
2018-07-06T08:17:49.195Z,21.80
2018-07-06T08:20:22.347Z,20.60
2018-07-06T08:22:54.802Z,15.80
2018-07-06T08:25:27.049Z,23.60
2018-07-06T08:28:01.188Z,21.00
2018-07-06T08:30:34.052Z,21.40
2018-07-06T08:33:06.415Z,25.00
2018-07-06T08:35:48.370Z,20.80
2018-07-06T08:38:20.763Z,20.80
2018-07-06T08:40:53.684Z,24.00
2018-07-06T08:43:25.649Z,23.60
2018-07-06T08:45:57.822Z,20.00
2018-07-06T08:48:31.009Z,25.20
2018-07-06T08:51:03.509Z,23.60
2018-07-06T08:53:36.645Z,23.80
2018-07-06T08:56:08.843Z,27.40
2018-07-06T08:58:42.946Z,29.80
2018-07-06T09:01:15.884Z,23.00
2018-07-06T09:10:49.616Z,27.00
2018-07-06T09:13:22.812Z,23.00
2018-07-06T09:15:55.456Z,22.00
2018-07-06T09:18:27.833Z,24.60
2018-07-06T09:21:01.208Z,21.40
2018-07-06T09:23:34.875Z,22.40
2018-07-06T09:26:07.952Z,22.20
2018-07-06T09:28:40.479Z,23.20
2018-07-06T09:31:13.494Z,23.20
2018-07-06T09:33:45.999Z,25.20
2018-07-06T09:36:20.059Z,23.80
2018-07-06T09:38:52.336Z,22.60
2018-07-06T09:41:25.153Z,22.40
2018-07-06T09:43:58.139Z,18.80
2018-07-06T09:46:30.437Z,21.80
2018-07-06T09:49:06.399Z,21.60
2018-07-06T09:51:39.222Z,20.40
2018-07-06T09:54:13.014Z,23.80
2018-07-06T09:56:45.771Z,22.40
2018-07-06T09:59:19.888Z,23.60
2018-07-06T10:01:52.480Z,24.40
2018-07-06T10:04:24.856Z,22.80
2018-07-06T10:07:00.603Z,22.40
2018-07-06T10:09:34.884Z,20.60
2018-07-06T10:12:08.561Z,23.60
2018-07-06T10:14:41.020Z,20.80
2018-07-06T10:17:15.870Z,21.00
2018-07-06T10:19:48.873Z,19.00
2018-07-06T10:22:22.532Z,20.80
2018-07-06T10:24:55.633Z,23.80
2018-07-06T10:27:34.591Z,19.00
2018-07-06T10:30:17.191Z,21.40
2018-07-06T10:32:49.811Z,20.80
2018-07-06T10:35:22.680Z,20.60
2018-07-06T10:37:55.310Z,21.20
2018-07-06T10:40:28.048Z,21.80
2018-07-06T10:43:00.652Z,20.20
2018-07-06T10:45:32.858Z,22.60
2018-07-06T10:48:06.856Z,21.80
2018-07-06T10:50:39.898Z,22.60
2018-07-06T10:53:12.537Z,20.80
2018-07-06T10:55:44.976Z,20.60
2018-07-06T10:58:17.735Z,19.00
2018-07-06T11:00:50.684Z,24.20
2018-07-06T11:03:22.634Z,20.60
2018-07-06T11:05:54.993Z,22.00
2018-07-06T11:08:28.264Z,24.20
2018-07-06T11:11:00.563Z,21.20
2018-07-06T11:13:33.373Z,23.20
2018-07-06T11:16:06.111Z,20.00
2018-07-06T11:18:38.852Z,20.00
2018-07-06T11:21:14.214Z,19.60
2018-07-06T11:23:46.605Z,20.20
2018-07-06T11:26:20.138Z,25.00
2018-07-06T11:28:52.952Z,17.40
2018-07-06T11:31:25.007Z,19.00
2018-07-06T11:33:58.032Z,20.60
2018-07-06T11:36:32.447Z,22.60
2018-07-06T11:39:06.992Z,18.60
2018-07-06T11:41:40.111Z,24.40
2018-07-06T11:44:13.524Z,21.80
2018-07-06T11:46:46.705Z,21.40
2018-07-06T11:49:19.694Z,24.60
2018-07-06T11:51:52.896Z,21.40
2018-07-06T11:54:25.308Z,23.00
2018-07-06T11:56:58.596Z,20.00
2018-07-06T11:59:33.151Z,24.00
2018-07-06T12:02:05.854Z,23.60
2018-07-06T12:04:38.636Z,24.40
2018-07-06T12:07:11.202Z,21.40
2018-07-06T12:09:43.568Z,17.80
2018-07-06T12:12:15.847Z,23.40
2018-07-06T12:14:48.112Z,18.20
2018-07-06T12:17:20.387Z,25.20
2018-07-06T12:19:52.835Z,22.40
2018-07-06T12:22:25.379Z,18.40
2018-07-06T12:24:57.757Z,22.60
2018-07-06T12:27:29.666Z,21.80
2018-07-06T12:30:02.291Z,24.00
2018-07-06T12:32:34.817Z,19.80
2018-07-06T12:35:07.706Z,24.80
2018-07-06T12:37:40.071Z,22.80
2018-07-06T12:40:12.535Z,22.40
2018-07-06T12:42:44.735Z,12.40
2018-07-06T12:45:17.571Z,21.40
2018-07-06T12:47:49.317Z,17.20
2018-07-06T12:50:21.520Z,17.20
2018-07-06T12:52:53.711Z,23.80
2018-07-06T12:55:25.965Z,24.20
2018-07-06T12:57:58.279Z,22.00
2018-07-06T13:00:30.927Z,20.60
2018-07-06T13:03:03.277Z,21.40
2018-07-06T13:05:35.868Z,22.20
2018-07-06T13:08:09.376Z,21.20
2018-07-06T13:10:42.350Z,20.60
2018-07-06T13:13:15.649Z,19.80
2018-07-06T13:15:47.830Z,18.60
2018-07-06T13:18:20.200Z,22.40
2018-07-06T13:20:52.248Z,23.60
2018-07-06T13:23:24.755Z,21.40
2018-07-06T13:25:56.818Z,22.80
2018-07-06T13:28:28.912Z,17.60
2018-07-06T13:31:01.195Z,24.00
2018-07-06T13:33:33.428Z,22.00
2018-07-06T13:36:05.684Z,22.60
2018-07-06T13:38:38.095Z,22.80
2018-07-06T13:41:11.394Z,24.40
2018-07-06T13:43:43.252Z,23.20
2018-07-06T13:46:15.611Z,23.40
2018-07-06T13:48:48.161Z,22.00
2018-07-06T13:51:21.040Z,21.80
2018-07-06T13:53:53.393Z,21.40
2018-07-06T13:56:26.451Z,20.00
2018-07-06T13:58:58.881Z,21.60
2018-07-06T14:01:31.569Z,21.00
2018-07-06T14:04:08.049Z,25.60
2018-07-06T14:06:41.242Z,24.00
2018-07-06T14:09:13.825Z,23.00
2018-07-06T14:11:46.666Z,23.80
2018-07-06T14:14:19.368Z,24.20
2018-07-06T14:16:51.615Z,25.20
2018-07-06T14:19:24.354Z,24.80
2018-07-06T14:21:56.840Z,25.00
2018-07-06T14:24:29.654Z,27.00
2018-07-06T14:27:02.480Z,27.80
2018-07-06T14:29:34.587Z,28.40
2018-07-06T14:32:06.748Z,30.60
2018-07-06T14:34:39.402Z,30.60
2018-07-06T14:37:12.153Z,28.20
2018-07-06T14:39:44.453Z,30.20
2018-07-06T14:42:16.904Z,30.40
2018-07-06T14:44:49.004Z,31.00
2018-07-06T14:47:21.409Z,29.80
2018-07-06T14:49:53.931Z,30.00
2018-07-06T14:52:26.583Z,30.00
2018-07-06T14:54:59.089Z,29.60
2018-07-06T14:57:31.398Z,30.60
2018-07-06T15:00:03.930Z,31.40
2018-07-06T15:02:36.665Z,32.00
2018-07-06T15:05:09.747Z,31.40
2018-07-06T15:07:42.436Z,30.20
2018-07-06T15:10:14.429Z,32.00
2018-07-06T15:12:47.247Z,32.20
2018-07-06T15:15:21.129Z,33.00
2018-07-06T15:17:53.863Z,32.80
2018-07-06T15:20:26.515Z,32.00
2018-07-06T15:22:59.824Z,33.20
2018-07-06T15:25:32.479Z,32.00
2018-07-06T15:28:05.124Z,35.00
2018-07-06T15:30:38.226Z,34.40
2018-07-06T15:33:10.707Z,36.00
2018-07-06T15:35:42.787Z,34.40
2018-07-06T15:38:15.889Z,35.00
2018-07-06T15:40:48.084Z,38.20
2018-07-06T15:43:20.214Z,38.80
2018-07-06T15:45:52.535Z,39.00
2018-07-06T15:48:24.712Z,40.00
2018-07-06T15:50:57.118Z,38.20
2018-07-06T15:53:29.376Z,38.80
2018-07-06T15:56:02.336Z,38.00
2018-07-06T15:58:34.777Z,37.80
2018-07-06T16:01:07.248Z,38.80
2018-07-06T16:03:39.973Z,38.40
